sensor_id;sensor_type;location;lat;lon;timestamp;temperature;humidity
42803;DHT22;28447;48.682;9.022;2023-06-14T04:00:36;10.90;99.90
42803;DHT22;28447;48.682;9.022;2023-06-14T04:03:02;10.90;99.90
42803;DHT22;28447;48.682;9.022;2023-06-14T04:05:30;10.90;99.90
42803;DHT22;28447;48.682;9.022;2023-06-14T04:07:55;10.90;99.90
42803;DHT22;28447;48.682;9.022;2023-06-14T04:10:22;10.90;99.90
42803;DHT22;28447;48.682;9.022;2023-06-14T04:12:48;10.90;99.90
42803;DHT22;28447;48.682;9.022;2023-06-14T04:15:14;11.00;99.90
42803;DHT22;28447;48.682;9.022;2023-06-14T04:17:40;11.10;99.90
42803;DHT22;28447;48.682;9.022;2023-06-14T04:20:06;11.20;99.90
42803;DHT22;28447;48.682;9.022;2023-06-14T04:22:34;11.20;99.90
42803;DHT22;28447;48.682;9.022;2023-06-14T04:25:00;11.30;99.90
42803;DHT22;28447;48.682;9.022;2023-06-14T04:27:28;11.50;99.90
42803;DHT22;28447;48.682;9.022;2023-06-14T04:29:56;11.60;99.90
42803;DHT22;28447;48.682;9.022;2023-06-14T04:32:26;11.60;99.90
42803;DHT22;28447;48.682;9.022;2023-06-14T04:34:55;11.50;99.90
42803;DHT22;28447;48.682;9.022;2023-06-14T04:37:22;11.70;99.90
42803;DHT22;28447;48.682;9.022;2023-06-14T04:39:48;11.80;99.90
42803;DHT22;28447;48.682;9.022;2023-06-14T04:42:14;12.00;99.90
42803;DHT22;28447;48.682;9.022;2023-06-14T04:44:42;12.20;99.90
42803;DHT22;28447;48.682;9.022;2023-06-14T04:47:09;12.40;99.90
42803;DHT22;28447;48.682;9.022;2023-06-14T04:49:35;12.40;99.90
42803;DHT22;28447;48.682;9.022;2023-06-14T04:52:00;12.40;99.90
42803;DHT22;28447;48.682;9.022;2023-06-14T04:54:28;12.40;99.90
42803;DHT22;28447;48.682;9.022;2023-06-14T04:56:56;12.50;99.90
42803;DHT22;28447;48.682;9.022;2023-06-14T04:59:22;12.60;99.90
42803;DHT22;28447;48.682;9.022;2023-06-14T05:01:51;12.90;99.90
42803;DHT22;28447;48.682;9.022;2023-06-14T05:04:19;13.20;99.90
42803;DHT22;28447;48.682;9.022;2023-06-14T05:06:45;13.10;99.50
42803;DHT22;28447;48.682;9.022;2023-06-14T05:09:13;13.40;99.90
42803;DHT22;28447;48.682;9.022;2023-06-14T05:11:39;13.50;98.60
42803;DHT22;28447;48.682;9.022;2023-06-14T05:14:05;13.50;98.80
42803;DHT22;28447;48.682;9.022;2023-06-14T05:16:31;13.40;98.10
42803;DHT22;28447;48.682;9.022;2023-06-14T05:18:58;13.30;98.50
42803;DHT22;28447;48.682;9.022;2023-06-14T05:21:24;13.50;99.00
42803;DHT22;28447;48.682;9.022;2023-06-14T05:23:49;13.60;99.20
42803;DHT22;28447;48.682;9.022;2023-06-14T05:26:16;13.70;98.50
42803;DHT22;28447;48.682;9.022;2023-06-14T05:28:42;13.80;99.60
42803;DHT22;28447;48.682;9.022;2023-06-14T05:31:08;13.90;98.00
42803;DHT22;28447;48.682;9.022;2023-06-14T05:33:33;14.10;97.30
42803;DHT22;28447;48.682;9.022;2023-06-14T05:35:59;14.30;96.80
42803;DHT22;28447;48.682;9.022;2023-06-14T05:38:24;14.50;96.90
42803;DHT22;28447;48.682;9.022;2023-06-14T05:40:51;14.60;96.70
42803;DHT22;28447;48.682;9.022;2023-06-14T05:43:16;14.80;95.90
42803;DHT22;28447;48.682;9.022;2023-06-14T05:45:42;14.80;97.00
42803;DHT22;28447;48.682;9.022;2023-06-14T05:48:07;15.10;95.40
42803;DHT22;28447;48.682;9.022;2023-06-14T05:50:33;15.40;94.90
42803;DHT22;28447;48.682;9.022;2023-06-14T05:52:59;15.40;95.00
42803;DHT22;28447;48.682;9.022;2023-06-14T05:55:25;15.50;94.80
42803;DHT22;28447;48.682;9.022;2023-06-14T05:57:50;15.80;94.90
42803;DHT22;28447;48.682;9.022;2023-06-14T06:00:17;16.00;93.80
42803;DHT22;28447;48.682;9.022;2023-06-14T06:02:43;16.20;92.80
42803;DHT22;28447;48.682;9.022;2023-06-14T06:05:10;16.50;92.90
42803;DHT22;28447;48.682;9.022;2023-06-14T06:07:36;16.60;91.80
42803;DHT22;28447;48.682;9.022;2023-06-14T06:10:03;16.90;90.70
42803;DHT22;28447;48.682;9.022;2023-06-14T06:12:29;17.10;89.60
42803;DHT22;28447;48.682;9.022;2023-06-14T06:14:55;17.40;88.40
42803;DHT22;28447;48.682;9.022;2023-06-14T06:17:21;17.50;88.30
42803;DHT22;28447;48.682;9.022;2023-06-14T06:19:46;17.70;86.80
42803;DHT22;28447;48.682;9.022;2023-06-14T06:22:12;18.00;86.60
42803;DHT22;28447;48.682;9.022;2023-06-14T06:24:38;17.90;87.00
42803;DHT22;28447;48.682;9.022;2023-06-14T06:27:04;18.10;84.40
42803;DHT22;28447;48.682;9.022;2023-06-14T06:29:29;18.30;84.80
42803;DHT22;28447;48.682;9.022;2023-06-14T06:31:55;18.60;84.50
42803;DHT22;28447;48.682;9.022;2023-06-14T06:34:21;18.60;84.90
42803;DHT22;28447;48.682;9.022;2023-06-14T06:36:47;18.60;84.10
42803;DHT22;28447;48.682;9.022;2023-06-14T06:39:13;18.80;82.20
42803;DHT22;28447;48.682;9.022;2023-06-14T06:41:40;18.90;82.20
42803;DHT22;28447;48.682;9.022;2023-06-14T06:44:07;19.00;82.00
42803;DHT22;28447;48.682;9.022;2023-06-14T06:46:33;18.90;83.60
42803;DHT22;28447;48.682;9.022;2023-06-14T06:48:59;19.00;83.60
42803;DHT22;28447;48.682;9.022;2023-06-14T06:51:25;18.60;82.70
42803;DHT22;28447;48.682;9.022;2023-06-14T06:53:54;18.90;82.10
42803;DHT22;28447;48.682;9.022;2023-06-14T06:56:21;19.00;81.70
42803;DHT22;28447;48.682;9.022;2023-06-14T06:58:51;19.20;82.40
42803;DHT22;28447;48.682;9.022;2023-06-14T07:01:17;19.40;82.50
42803;DHT22;28447;48.682;9.022;2023-06-14T07:03:44;19.80;81.30
42803;DHT22;28447;48.682;9.022;2023-06-14T07:06:09;19.90;80.10
42803;DHT22;28447;48.682;9.022;2023-06-14T07:08:36;19.80;85.70
42803;DHT22;28447;48.682;9.022;2023-06-14T07:11:04;19.80;86.00
42803;DHT22;28447;48.682;9.022;2023-06-14T07:13:30;19.60;84.80
42803;DHT22;28447;48.682;9.022;2023-06-14T07:15:58;19.60;82.70
42803;DHT22;28447;48.682;9.022;2023-06-14T07:18:24;19.70;82.30
42803;DHT22;28447;48.682;9.022;2023-06-14T07:20:50;19.70;83.70
42803;DHT22;28447;48.682;9.022;2023-06-14T07:23:16;19.70;82.80
42803;DHT22;28447;48.682;9.022;2023-06-14T07:25:41;19.90;82.30
42803;DHT22;28447;48.682;9.022;2023-06-14T07:28:07;20.10;82.40
42803;DHT22;28447;48.682;9.022;2023-06-14T07:30:33;20.10;77.20
42803;DHT22;28447;48.682;9.022;2023-06-14T07:32:58;20.10;75.80
42803;DHT22;28447;48.682;9.022;2023-06-14T07:35:24;20.10;78.10
42803;DHT22;28447;48.682;9.022;2023-06-14T07:37:50;20.20;79.00
42803;DHT22;28447;48.682;9.022;2023-06-14T07:40:15;20.10;80.70
42803;DHT22;28447;48.682;9.022;2023-06-14T07:45:07;21.00;77.70
42803;DHT22;28447;48.682;9.022;2023-06-14T07:47:33;21.00;75.20
42803;DHT22;28447;48.682;9.022;2023-06-14T07:49:59;21.00;76.50
42803;DHT22;28447;48.682;9.022;2023-06-14T07:52:25;20.70;76.40
42803;DHT22;28447;48.682;9.022;2023-06-14T07:54:51;21.50;76.10
42803;DHT22;28447;48.682;9.022;2023-06-14T07:57:16;21.50;75.40
42803;DHT22;28447;48.682;9.022;2023-06-14T07:59:42;22.10;75.30
42803;DHT22;28447;48.682;9.022;2023-06-14T08:02:07;21.80;77.00
42803;DHT22;28447;48.682;9.022;2023-06-14T08:04:33;22.10;74.80
42803;DHT22;28447;48.682;9.022;2023-06-14T08:06:59;22.70;74.60
42803;DHT22;28447;48.682;9.022;2023-06-14T08:09:26;22.60;92.60
42803;DHT22;28447;48.682;9.022;2023-06-14T08:11:53;22.70;93.80
42803;DHT22;28447;48.682;9.022;2023-06-14T08:14:19;22.50;92.70
42803;DHT22;28447;48.682;9.022;2023-06-14T08:16:44;22.00;92.70
42803;DHT22;28447;48.682;9.022;2023-06-14T08:19:10;22.20;93.00
42803;DHT22;28447;48.682;9.022;2023-06-14T08:21:35;22.10;92.60
42803;DHT22;28447;48.682;9.022;2023-06-14T08:24:02;22.20;92.60
42803;DHT22;28447;48.682;9.022;2023-06-14T08:26:29;22.30;92.90
42803;DHT22;28447;48.682;9.022;2023-06-14T08:28:55;22.60;92.40
42803;DHT22;28447;48.682;9.022;2023-06-14T08:31:21;22.40;91.90
42803;DHT22;28447;48.682;9.022;2023-06-14T08:33:47;22.50;92.60
42803;DHT22;28447;48.682;9.022;2023-06-14T08:36:13;22.60;92.40
42803;DHT22;28447;48.682;9.022;2023-06-14T08:38:39;22.70;91.70
42803;DHT22;28447;48.682;9.022;2023-06-14T08:41:05;22.60;92.00
42803;DHT22;28447;48.682;9.022;2023-06-14T08:43:32;22.10;91.40
42803;DHT22;28447;48.682;9.022;2023-06-14T08:50:55;24.60;71.90
42803;DHT22;28447;48.682;9.022;2023-06-14T08:53:28;24.60;71.00
42803;DHT22;28447;48.682;9.022;2023-06-14T08:55:58;24.70;68.50
42803;DHT22;28447;48.682;9.022;2023-06-14T08:58:27;24.40;69.10
42803;DHT22;28447;48.682;9.022;2023-06-14T09:00:55;24.60;69.90
42803;DHT22;28447;48.682;9.022;2023-06-14T09:03:21;23.60;70.50
42803;DHT22;28447;48.682;9.022;2023-06-14T09:05:48;24.40;67.00
42803;DHT22;28447;48.682;9.022;2023-06-14T09:08:15;25.00;67.00
42803;DHT22;28447;48.682;9.022;2023-06-14T09:10:41;24.80;68.30
42803;DHT22;28447;48.682;9.022;2023-06-14T09:13:07;24.90;66.80
42803;DHT22;28447;48.682;9.022;2023-06-14T09:15:35;25.40;65.10
42803;DHT22;28447;48.682;9.022;2023-06-14T09:18:01;25.20;65.50
42803;DHT22;28447;48.682;9.022;2023-06-14T09:20:29;25.80;64.90
42803;DHT22;28447;48.682;9.022;2023-06-14T09:22:55;25.70;65.60
42803;DHT22;28447;48.682;9.022;2023-06-14T09:25:21;26.10;68.40
42803;DHT22;28447;48.682;9.022;2023-06-14T09:27:47;25.40;68.50
42803;DHT22;28447;48.682;9.022;2023-06-14T09:30:13;25.60;65.70
42803;DHT22;28447;48.682;9.022;2023-06-14T09:32:40;26.10;65.40
42803;DHT22;28447;48.682;9.022;2023-06-14T09:35:07;26.10;67.40
42803;DHT22;28447;48.682;9.022;2023-06-14T09:37:33;27.00;66.20
42803;DHT22;28447;48.682;9.022;2023-06-14T09:39:59;27.70;62.90
42803;DHT22;28447;48.682;9.022;2023-06-14T09:42:25;27.00;62.60
42803;DHT22;28447;48.682;9.022;2023-06-14T09:44:55;27.10;63.70
42803;DHT22;28447;48.682;9.022;2023-06-14T09:47:22;27.60;63.30
42803;DHT22;28447;48.682;9.022;2023-06-14T09:49:48;28.10;62.10
42803;DHT22;28447;48.682;9.022;2023-06-14T09:52:17;27.40;63.30
42803;DHT22;28447;48.682;9.022;2023-06-14T09:54:43;25.80;63.70
42803;DHT22;28447;48.682;9.022;2023-06-14T09:57:12;24.70;65.30
42803;DHT22;28447;48.682;9.022;2023-06-14T09:59:45;24.80;64.30
42803;DHT22;28447;48.682;9.022;2023-06-14T10:02:27;25.30;64.40
42803;DHT22;28447;48.682;9.022;2023-06-14T10:07:56;27.30;60.20
42803;DHT22;28447;48.682;9.022;2023-06-14T10:10:20;26.80;59.90
42803;DHT22;28447;48.682;9.022;2023-06-14T10:12:46;27.40;59.60
42803;DHT22;28447;48.682;9.022;2023-06-14T10:15:19;27.70;59.60
42803;DHT22;28447;48.682;9.022;2023-06-14T10:17:50;27.60;56.90
42803;DHT22;28447;48.682;9.022;2023-06-14T10:22:51;26.50;60.40
42803;DHT22;28447;48.682;9.022;2023-06-14T10:25:30;27.10;58.60
42803;DHT22;28447;48.682;9.022;2023-06-14T10:28:17;25.50;59.50
42803;DHT22;28447;48.682;9.022;2023-06-14T10:31:11;26.60;61.20
42803;DHT22;28447;48.682;9.022;2023-06-14T10:39:16;25.20;62.70
42803;DHT22;28447;48.682;9.022;2023-06-14T10:41:51;24.20;63.50
42803;DHT22;28447;48.682;9.022;2023-06-14T10:46:47;26.60;61.00
42803;DHT22;28447;48.682;9.022;2023-06-14T10:49:16;27.90;59.60
42803;DHT22;28447;48.682;9.022;2023-06-14T10:51:51;27.90;59.70
42803;DHT22;28447;48.682;9.022;2023-06-14T10:54:21;29.40;57.00
42803;DHT22;28447;48.682;9.022;2023-06-14T10:56:52;28.40;57.90
42803;DHT22;28447;48.682;9.022;2023-06-14T10:59:19;27.00;59.90
42803;DHT22;28447;48.682;9.022;2023-06-14T11:10:35;26.80;58.80
42803;DHT22;28447;48.682;9.022;2023-06-14T11:13:02;27.10;59.10
42803;DHT22;28447;48.682;9.022;2023-06-14T11:15:33;28.10;57.90
42803;DHT22;28447;48.682;9.022;2023-06-14T11:18:05;28.20;56.50
42803;DHT22;28447;48.682;9.022;2023-06-14T11:20:33;28.90;55.90
42803;DHT22;28447;48.682;9.022;2023-06-14T11:22:59;29.40;55.00
42803;DHT22;28447;48.682;9.022;2023-06-14T11:25:26;30.60;53.80
42803;DHT22;28447;48.682;9.022;2023-06-14T11:27:54;30.90;52.30
42803;DHT22;28447;48.682;9.022;2023-06-14T11:30:20;29.80;54.70
42803;DHT22;28447;48.682;9.022;2023-06-14T11:32:49;29.80;55.20
42803;DHT22;28447;48.682;9.022;2023-06-14T11:35:16;30.10;54.10
42803;DHT22;28447;48.682;9.022;2023-06-14T11:37:42;30.30;55.20
42803;DHT22;28447;48.682;9.022;2023-06-14T11:40:11;29.50;54.90
42803;DHT22;28447;48.682;9.022;2023-06-14T11:42:38;29.00;56.50
42803;DHT22;28447;48.682;9.022;2023-06-14T11:45:07;28.00;56.00
42803;DHT22;28447;48.682;9.022;2023-06-14T11:47:34;28.10;58.50
42803;DHT22;28447;48.682;9.022;2023-06-14T11:50:02;28.00;57.70
42803;DHT22;28447;48.682;9.022;2023-06-14T11:52:28;27.40;58.90
42803;DHT22;28447;48.682;9.022;2023-06-14T11:54:54;27.00;60.00
42803;DHT22;28447;48.682;9.022;2023-06-14T11:57:20;28.10;59.90
42803;DHT22;28447;48.682;9.022;2023-06-14T11:59:46;29.10;56.90
42803;DHT22;28447;48.682;9.022;2023-06-14T12:02:16;28.70;58.40
42803;DHT22;28447;48.682;9.022;2023-06-14T12:04:47;27.30;58.10
42803;DHT22;28447;48.682;9.022;2023-06-14T12:07:17;26.20;60.20
42803;DHT22;28447;48.682;9.022;2023-06-14T12:12:23;26.20;61.20
42803;DHT22;28447;48.682;9.022;2023-06-14T12:14:51;27.50;59.60
42803;DHT22;28447;48.682;9.022;2023-06-14T12:17:17;29.70;57.10
42803;DHT22;28447;48.682;9.022;2023-06-14T12:19:44;31.30;54.60
42803;DHT22;28447;48.682;9.022;2023-06-14T12:22:11;31.10;55.30
42803;DHT22;28447;48.682;9.022;2023-06-14T12:24:37;32.40;54.60
42803;DHT22;28447;48.682;9.022;2023-06-14T12:27:04;32.60;51.70
42803;DHT22;28447;48.682;9.022;2023-06-14T12:29:32;32.10;52.40
42803;DHT22;28447;48.682;9.022;2023-06-14T12:31:59;33.00;52.30
42803;DHT22;28447;48.682;9.022;2023-06-14T12:34:24;30.30;52.70
42803;DHT22;28447;48.682;9.022;2023-06-14T12:36:50;29.80;53.40
42803;DHT22;28447;48.682;9.022;2023-06-14T12:39:16;30.30;54.30
42803;DHT22;28447;48.682;9.022;2023-06-14T12:41:42;30.80;52.80
42803;DHT22;28447;48.682;9.022;2023-06-14T12:44:08;29.50;54.60
42803;DHT22;28447;48.682;9.022;2023-06-14T12:46:34;29.80;55.50
42803;DHT22;28447;48.682;9.022;2023-06-14T12:49:05;31.80;52.70
42803;DHT22;28447;48.682;9.022;2023-06-14T12:51:32;31.00;53.10
42803;DHT22;28447;48.682;9.022;2023-06-14T12:53:58;33.30;50.60
42803;DHT22;28447;48.682;9.022;2023-06-14T12:56:23;34.00;50.70
42803;DHT22;28447;48.682;9.022;2023-06-14T12:58:49;32.80;51.50
42803;DHT22;28447;48.682;9.022;2023-06-14T13:01:15;32.80;51.50
42803;DHT22;28447;48.682;9.022;2023-06-14T13:03:40;33.10;51.50
42803;DHT22;28447;48.682;9.022;2023-06-14T13:06:06;33.10;50.10
42803;DHT22;28447;48.682;9.022;2023-06-14T13:08:32;34.10;48.40
42803;DHT22;28447;48.682;9.022;2023-06-14T13:10:57;32.40;49.30
42803;DHT22;28447;48.682;9.022;2023-06-14T13:13:23;33.80;49.50
42803;DHT22;28447;48.682;9.022;2023-06-14T13:15:49;34.10;49.70
42803;DHT22;28447;48.682;9.022;2023-06-14T13:18:15;34.90;48.90
42803;DHT22;28447;48.682;9.022;2023-06-14T13:20:41;34.30;48.20
42803;DHT22;28447;48.682;9.022;2023-06-14T13:23:08;32.60;50.20
42803;DHT22;28447;48.682;9.022;2023-06-14T13:25:35;33.60;49.50
42803;DHT22;28447;48.682;9.022;2023-06-14T13:28:03;33.30;49.50
42803;DHT22;28447;48.682;9.022;2023-06-14T13:30:30;32.40;49.30
42803;DHT22;28447;48.682;9.022;2023-06-14T13:32:56;33.90;49.80
42803;DHT22;28447;48.682;9.022;2023-06-14T13:35:22;33.70;49.20
42803;DHT22;28447;48.682;9.022;2023-06-14T13:37:48;34.90;48.10
42803;DHT22;28447;48.682;9.022;2023-06-14T13:40:14;33.90;49.40
42803;DHT22;28447;48.682;9.022;2023-06-14T13:42:40;35.50;47.10
42803;DHT22;28447;48.682;9.022;2023-06-14T13:45:06;36.10;49.50
42803;DHT22;28447;48.682;9.022;2023-06-14T13:47:32;34.80;49.80
42803;DHT22;28447;48.682;9.022;2023-06-14T13:49:58;32.70;52.40
42803;DHT22;28447;48.682;9.022;2023-06-14T13:52:24;31.90;53.20
42803;DHT22;28447;48.682;9.022;2023-06-14T13:54:50;28.60;51.00
42803;DHT22;28447;48.682;9.022;2023-06-14T13:57:17;30.20;52.40
42803;DHT22;28447;48.682;9.022;2023-06-14T13:59:43;33.30;50.90
42803;DHT22;28447;48.682;9.022;2023-06-14T14:02:11;33.90;50.10
42803;DHT22;28447;48.682;9.022;2023-06-14T14:04:37;35.20;47.90
42803;DHT22;28447;48.682;9.022;2023-06-14T14:07:05;33.90;48.10
42803;DHT22;28447;48.682;9.022;2023-06-14T14:09:34;32.90;48.60
42803;DHT22;28447;48.682;9.022;2023-06-14T14:12:01;32.10;49.90
42803;DHT22;28447;48.682;9.022;2023-06-14T14:14:28;29.90;52.10
42803;DHT22;28447;48.682;9.022;2023-06-14T14:16:54;31.30;51.00
42803;DHT22;28447;48.682;9.022;2023-06-14T14:19:23;31.60;51.00
42803;DHT22;28447;48.682;9.022;2023-06-14T14:21:49;31.70;51.60
42803;DHT22;28447;48.682;9.022;2023-06-14T14:24:14;31.40;51.50
42803;DHT22;28447;48.682;9.022;2023-06-14T14:26:41;31.60;51.60
42803;DHT22;28447;48.682;9.022;2023-06-14T14:29:07;31.90;52.00
42803;DHT22;28447;48.682;9.022;2023-06-14T14:31:33;32.30;51.10
42803;DHT22;28447;48.682;9.022;2023-06-14T14:33:58;33.60;50.30
42803;DHT22;28447;48.682;9.022;2023-06-14T14:36:24;31.70;49.90
42803;DHT22;28447;48.682;9.022;2023-06-14T14:38:50;33.10;49.60
42803;DHT22;28447;48.682;9.022;2023-06-14T14:41:17;32.30;51.30
42803;DHT22;28447;48.682;9.022;2023-06-14T14:43:43;32.20;50.70
42803;DHT22;28447;48.682;9.022;2023-06-14T14:46:08;33.10;50.80
42803;DHT22;28447;48.682;9.022;2023-06-14T14:48:34;34.10;49.00
42803;DHT22;28447;48.682;9.022;2023-06-14T14:50:59;33.90;49.20
42803;DHT22;28447;48.682;9.022;2023-06-14T14:53:25;33.40;48.90
42803;DHT22;28447;48.682;9.022;2023-06-14T14:55:51;34.40;48.70
42803;DHT22;28447;48.682;9.022;2023-06-14T14:58:16;33.70;50.50
42803;DHT22;28447;48.682;9.022;2023-06-14T15:00:45;33.80;48.40
42803;DHT22;28447;48.682;9.022;2023-06-14T15:03:11;34.70;49.70
42803;DHT22;28447;48.682;9.022;2023-06-14T15:05:37;34.60;49.10
42803;DHT22;28447;48.682;9.022;2023-06-14T15:08:03;34.60;47.70
42803;DHT22;28447;48.682;9.022;2023-06-14T15:10:30;34.20;49.40
42803;DHT22;28447;48.682;9.022;2023-06-14T15:12:56;34.90;48.30
42803;DHT22;28447;48.682;9.022;2023-06-14T15:15:22;34.70;47.80
42803;DHT22;28447;48.682;9.022;2023-06-14T15:17:48;32.80;50.10
42803;DHT22;28447;48.682;9.022;2023-06-14T15:20:13;31.80;50.70
42803;DHT22;28447;48.682;9.022;2023-06-14T15:22:40;30.60;52.30
42803;DHT22;28447;48.682;9.022;2023-06-14T15:25:06;31.10;51.70
42803;DHT22;28447;48.682;9.022;2023-06-14T15:27:32;30.40;53.30
42803;DHT22;28447;48.682;9.022;2023-06-14T15:29:57;30.90;53.40
42803;DHT22;28447;48.682;9.022;2023-06-14T15:32:23;30.90;54.00
42803;DHT22;28447;48.682;9.022;2023-06-14T15:34:49;30.60;53.20
42803;DHT22;28447;48.682;9.022;2023-06-14T15:37:14;30.00;54.40
42803;DHT22;28447;48.682;9.022;2023-06-14T15:39:40;29.30;54.70
42803;DHT22;28447;48.682;9.022;2023-06-14T15:42:06;29.10;55.40
42803;DHT22;28447;48.682;9.022;2023-06-14T15:44:33;30.30;53.90
42803;DHT22;28447;48.682;9.022;2023-06-14T15:46:58;30.10;55.70
42803;DHT22;28447;48.682;9.022;2023-06-14T15:49:24;30.20;54.20
42803;DHT22;28447;48.682;9.022;2023-06-14T15:51:51;30.40;54.80
42803;DHT22;28447;48.682;9.022;2023-06-14T15:54:16;29.40;55.70
42803;DHT22;28447;48.682;9.022;2023-06-14T15:56:42;28.90;55.70
42803;DHT22;28447;48.682;9.022;2023-06-14T15:59:08;30.30;54.80
42803;DHT22;28447;48.682;9.022;2023-06-14T16:01:33;29.50;55.10
42803;DHT22;28447;48.682;9.022;2023-06-14T16:03:59;29.20;56.30
42803;DHT22;28447;48.682;9.022;2023-06-14T16:06:25;28.90;57.00
42803;DHT22;28447;48.682;9.022;2023-06-14T16:08:51;28.50;56.60
42803;DHT22;28447;48.682;9.022;2023-06-14T16:11:18;28.10;56.50
42803;DHT22;28447;48.682;9.022;2023-06-14T16:13:46;28.80;60.40
42803;DHT22;28447;48.682;9.022;2023-06-14T16:16:11;29.00;54.50
42803;DHT22;28447;48.682;9.022;2023-06-14T16:18:37;28.00;57.10
42803;DHT22;28447;48.682;9.022;2023-06-14T16:21:03;28.40;57.80
42803;DHT22;28447;48.682;9.022;2023-06-14T16:23:32;28.30;56.60
42803;DHT22;28447;48.682;9.022;2023-06-14T16:25:57;28.80;59.40
42803;DHT22;28447;48.682;9.022;2023-06-14T16:28:24;27.70;56.40
42803;DHT22;28447;48.682;9.022;2023-06-14T16:30:50;26.70;58.00
42803;DHT22;28447;48.682;9.022;2023-06-14T16:33:16;27.20;58.20
42803;DHT22;28447;48.682;9.022;2023-06-14T16:35:41;26.60;58.00
42803;DHT22;28447;48.682;9.022;2023-06-14T16:38:07;26.20;60.10
42803;DHT22;28447;48.682;9.022;2023-06-14T16:40:33;26.20;59.10
42803;DHT22;28447;48.682;9.022;2023-06-14T16:42:59;25.50;60.80
42803;DHT22;28447;48.682;9.022;2023-06-14T16:45:24;25.40;61.00
42803;DHT22;28447;48.682;9.022;2023-06-14T16:47:50;25.30;60.00
42803;DHT22;28447;48.682;9.022;2023-06-14T16:50:16;25.40;61.20
42803;DHT22;28447;48.682;9.022;2023-06-14T16:52:42;25.20;61.80
42803;DHT22;28447;48.682;9.022;2023-06-14T16:55:08;25.20;60.40
42803;DHT22;28447;48.682;9.022;2023-06-14T16:57:34;25.00;62.70
42803;DHT22;28447;48.682;9.022;2023-06-14T17:00:00;24.90;61.20
42803;DHT22;28447;48.682;9.022;2023-06-14T17:02:25;24.50;62.60
42803;DHT22;28447;48.682;9.022;2023-06-14T17:04:51;24.60;62.10
42803;DHT22;28447;48.682;9.022;2023-06-14T17:07:17;24.30;64.10
42803;DHT22;28447;48.682;9.022;2023-06-14T17:09:42;24.50;65.50
42803;DHT22;28447;48.682;9.022;2023-06-14T17:12:08;25.00;62.20
42803;DHT22;28447;48.682;9.022;2023-06-14T17:14:34;25.00;62.20
42803;DHT22;28447;48.682;9.022;2023-06-14T17:16:59;24.70;62.40
42803;DHT22;28447;48.682;9.022;2023-06-14T17:19:26;24.70;62.50
42803;DHT22;28447;48.682;9.022;2023-06-14T17:21:52;24.40;63.50
42803;DHT22;28447;48.682;9.022;2023-06-14T17:24:19;24.50;64.60
42803;DHT22;28447;48.682;9.022;2023-06-14T17:26:45;24.20;64.10
42803;DHT22;28447;48.682;9.022;2023-06-14T17:29:11;24.20;63.60
42803;DHT22;28447;48.682;9.022;2023-06-14T17:31:36;23.90;64.60
42803;DHT22;28447;48.682;9.022;2023-06-14T17:34:02;23.60;63.80
42803;DHT22;28447;48.682;9.022;2023-06-14T17:36:28;23.40;64.40
42803;DHT22;28447;48.682;9.022;2023-06-14T17:38:54;23.40;65.30
42803;DHT22;28447;48.682;9.022;2023-06-14T17:41:20;23.30;67.50
42803;DHT22;28447;48.682;9.022;2023-06-14T17:43:47;23.30;66.60
42803;DHT22;28447;48.682;9.022;2023-06-14T17:46:13;23.10;66.50
42803;DHT22;28447;48.682;9.022;2023-06-14T17:48:39;23.20;67.20
42803;DHT22;28447;48.682;9.022;2023-06-14T17:53:32;22.80;66.80
42803;DHT22;28447;48.682;9.022;2023-06-14T17:55:58;22.70;68.60
42803;DHT22;28447;48.682;9.022;2023-06-14T17:58:24;22.80;67.70
42803;DHT22;28447;48.682;9.022;2023-06-14T18:00:50;22.60;68.40
42803;DHT22;28447;48.682;9.022;2023-06-14T18:03:17;22.60;69.00
42803;DHT22;28447;48.682;9.022;2023-06-14T18:05:43;22.60;69.60
42803;DHT22;28447;48.682;9.022;2023-06-14T18:08:10;22.70;69.10
42803;DHT22;28447;48.682;9.022;2023-06-14T18:10:36;22.50;68.80
42803;DHT22;28447;48.682;9.022;2023-06-14T18:13:02;22.30;69.50
42803;DHT22;28447;48.682;9.022;2023-06-14T18:15:28;22.40;69.90
42803;DHT22;28447;48.682;9.022;2023-06-14T18:17:54;22.10;69.80
42803;DHT22;28447;48.682;9.022;2023-06-14T18:20:21;22.10;70.70
42803;DHT22;28447;48.682;9.022;2023-06-14T18:22:48;22.00;70.10
42803;DHT22;28447;48.682;9.022;2023-06-14T18:25:15;21.90;70.20
42803;DHT22;28447;48.682;9.022;2023-06-14T18:27:41;22.00;71.40
42803;DHT22;28447;48.682;9.022;2023-06-14T18:30:09;22.00;70.80
42803;DHT22;28447;48.682;9.022;2023-06-14T18:32:35;21.80;70.90
42803;DHT22;28447;48.682;9.022;2023-06-14T18:35:01;21.60;72.00
42803;DHT22;28447;48.682;9.022;2023-06-14T18:37:27;21.70;72.90
42803;DHT22;28447;48.682;9.022;2023-06-14T18:39:53;21.60;72.30
42803;DHT22;28447;48.682;9.022;2023-06-14T18:42:19;21.60;72.70
42803;DHT22;28447;48.682;9.022;2023-06-14T18:44:46;21.60;73.30
42803;DHT22;28447;48.682;9.022;2023-06-14T18:47:12;21.50;74.90
42803;DHT22;28447;48.682;9.022;2023-06-14T18:49:39;21.30;75.00
42803;DHT22;28447;48.682;9.022;2023-06-14T18:52:05;21.30;75.00
42803;DHT22;28447;48.682;9.022;2023-06-14T18:54:31;21.40;73.70
42803;DHT22;28447;48.682;9.022;2023-06-14T18:56:56;21.10;73.60
42803;DHT22;28447;48.682;9.022;2023-06-14T18:59:22;20.90;80.90
42803;DHT22;28447;48.682;9.022;2023-06-14T19:01:48;20.80;80.40
42803;DHT22;28447;48.682;9.022;2023-06-14T19:04:13;20.70;79.40
42803;DHT22;28447;48.682;9.022;2023-06-14T19:06:39;20.70;80.00
42803;DHT22;28447;48.682;9.022;2023-06-14T19:09:05;20.80;79.90
42803;DHT22;28447;48.682;9.022;2023-06-14T19:11:30;20.60;81.00
42803;DHT22;28447;48.682;9.022;2023-06-14T19:13:56;20.40;81.80
42803;DHT22;28447;48.682;9.022;2023-06-14T19:16:22;20.50;82.90
42803;DHT22;28447;48.682;9.022;2023-06-14T19:18:47;20.20;84.80
42803;DHT22;28447;48.682;9.022;2023-06-14T19:21:13;20.00;87.20
42803;DHT22;28447;48.682;9.022;2023-06-14T19:23:39;20.00;93.80
42803;DHT22;28447;48.682;9.022;2023-06-14T19:26:05;20.00;93.70
42803;DHT22;28447;48.682;9.022;2023-06-14T19:28:32;19.90;93.60
42803;DHT22;28447;48.682;9.022;2023-06-14T19:30:57;20.00;93.70
42803;DHT22;28447;48.682;9.022;2023-06-14T19:33:23;19.70;93.30
42803;DHT22;28447;48.682;9.022;2023-06-14T19:35:49;19.80;93.60
42803;DHT22;28447;48.682;9.022;2023-06-14T19:38:14;19.50;93.10
42803;DHT22;28447;48.682;9.022;2023-06-14T19:40:41;19.60;93.10
42803;DHT22;28447;48.682;9.022;2023-06-14T19:43:07;19.40;92.90
42803;DHT22;28447;48.682;9.022;2023-06-14T19:45:32;19.40;92.80
42803;DHT22;28447;48.682;9.022;2023-06-14T19:47:58;19.40;93.20
42803;DHT22;28447;48.682;9.022;2023-06-14T19:50:24;19.30;93.30
42803;DHT22;28447;48.682;9.022;2023-06-14T19:52:50;19.30;93.60
42803;DHT22;28447;48.682;9.022;2023-06-14T19:55:16;19.20;93.30
42803;DHT22;28447;48.682;9.022;2023-06-14T19:57:41;19.10;93.90
42803;DHT22;28447;48.682;9.022;2023-06-14T20:00:07;19.20;93.60